Main page
Satellite images 10-day forecastsClimateMarine weather Cyclones Lightning AirportsFAQ Newsletter About
Weather : Europe Africa North America South America Asia Australia-Oceania Others
Languages Contact

Gdańsk, Poland

Gdańsk Lech Wałęsa Airport

latitude: 54-23N, longitude: 018-28E, elevation: 135 m


METAR: EPGD 040130Z 35002KT CAVOK 14/13 Q1025
TAF: EPGD 032330Z 0400/0424 VRB02KT CAVOK BECMG 0406/0408 20010KT

Time: 03:36 (01:36 UTC)

Current weather observation

The report was made 6 minutes ago, at 01:30 UTC
Wind 2 kt from the North
Temperature 14°C
Humidity 94%
Pressure 1025 hPa
Visibility 10 km or more
no clouds below 1500 m and no cumulonimbus

Change units

Forecast

The report was made 2 hours and 6 minutes ago, at 23:30 UTC
Forecast valid from 04 at 00 UTC to 04 at 24 UTC
Wind 2 kt from variable directions
Visibility 10 km or more
no clouds below 1500 m and no cumulonimbus
Becoming
from 04 at 06 UTC to 04 at 08 UTC
Wind 10 kt from the South/Southwest
The information on this site is subject to a disclaimer
Weather : Europe Africa North America South America Asia Australia-Oceania Others
Satellite images 10-day forecastsClimateMarine weather Cyclones Lightning AirportsFAQ Languages Contact Newsletter About